Tim S. Dool — VGPY — position and weather

sailwx.info

Track history (hours):
 
Tides and Currents Weather Stations Pressure Air Temp Water Temp Dewpoint Dewpoint Depression Visibility Wind Speed Wind Dir Waves Ship Positions

Tim S. Dool

Last reported at 2018-May-26 11:04 UTC. Time now 2018-May-26 14:09 UTC.
Position N 46°15' W 084°06'.

Length 223 m; draft 8.1 m.

Type: Cargo ship. MMSI: 316001696.

Date/timePositionNaut miles runAvg speedWind from/ knotsBaromVisibWave heightAir tempDewpointWater temp
2018-May-26 11:04N 46°15' W 084°06'4711.2
2018-May-26 06:55N 45°35' W 083°32'613.1
2018-May-26 06:29N 45°30' W 083°27'227 8.6
2018-May-25 04:00N 42°00' W 081°30'38616.8 160 / 101016.0 16.010.0
2018-May-24 05:00N 48°18' W 079°36'30025.0 270 / 51023.010.8 15.010.0
2018-May-23 17:00N 43°18' W 079°48'153 4.1 270 / 7574.810.8 24.017.0
2018-May-22 04:00N 41°54' W 082°42'216 9.7 090 / 101026.0 5.4 15.0 5.0
2018-May-21 05:42N 45°28' W 083°16'312.5
2018-May-21 05:29N 45°31' W 083°19'25610.1
2018-May-20 04:00N 47°30' W 088°48'12412.2 1023.010.8 8.0 4.0
2018-May-19 17:51N 46°51' W 091°41'412.3
2018-May-19 17:30N 46°50' W 091°47'612.1
2018-May-19 17:00N 46°47' W 091°54'611.3
2018-May-19 16:30N 46°43' W 092°00'1 2.0
2018-May-19 16:00N 46°42' W 092°01'0 0.1
2018-May-19 15:30N 46°42' W 092°01'0 0.0
2018-May-19 15:00N 46°42' W 092°01'0 0.0
2018-May-19 14:30N 46°42' W 092°01'0 0.0
2018-May-19 14:00N 46°42' W 092°01'0 0.0
2018-May-19 13:30N 46°42' W 092°01'0 0.0
2018-May-19 13:01N 46°42' W 092°01'0 0.0
2018-May-19 12:31N 46°42' W 092°01'0 0.0
2018-May-19 12:00N 46°42' W 092°01'0 0.0
2018-May-19 11:30N 46°42' W 092°01'0 0.0
2018-May-19 11:00N 46°42' W 092°01'0 0.0
2018-May-19 10:30N 46°42' W 092°01'0 0.0
2018-May-19 10:00N 46°42' W 092°01'0 0.0
2018-May-19 09:30N 46°42' W 092°01'0 0.0
2018-May-19 09:00N 46°42' W 092°01'0 0.0
2018-May-19 08:30N 46°42' W 092°01'0 0.0
2018-May-19 08:00N 46°42' W 092°01'0 0.0
2018-May-19 07:30N 46°42' W 092°01'0 0.0
2018-May-19 07:00N 46°42' W 092°01'0 0.0
2018-May-19 06:30N 46°42' W 092°01'0 0.0
2018-May-19 06:00N 46°42' W 092°01'0 0.0
2018-May-19 05:30N 46°42' W 092°01'0 0.0
2018-May-19 05:00N 46°42' W 092°01'0 0.0
2018-May-19 04:30N 46°42' W 092°01'0 0.0
2018-May-19 04:00N 46°42' W 092°01'0 0.0
2018-May-19 03:31N 46°42' W 092°01'0 0.0
2018-May-19 03:00N 46°42' W 092°01'0 0.0
2018-May-19 02:30N 46°42' W 092°01'0 0.5
2018-May-19 02:01N 46°42' W 092°01'1 1.6
2018-May-19 01:30N 46°43' W 092°00'2 3.6
2018-May-19 01:00N 46°44' W 091°59'1 1.8
2018-May-19 00:30N 46°44' W 091°57'0 0.7
2018-May-19 00:00N 46°44' W 091°57'1 1.1
2018-May-18 23:30N 46°44' W 091°58'0 0.7
2018-May-18 23:00N 46°44' W 091°57'2 3.9
2018-May-18 22:30N 46°45' W 091°55'2 4.0
2018-May-18 22:00N 46°46' W 091°52'2 4.2
2018-May-18 21:30N 46°47' W 091°50'4 7.0
2018-May-18 21:00N 46°48' W 091°45'713.2
2018-May-18 20:30N 46°51' W 091°36'1310.4
2018-May-18 19:16N 46°57' W 091°19'3314.6
2018-May-18 17:00N 47°12' W 090°36'30810.5 090 / 101020.010.8 10.0 5.0
2018-May-17 11:45N 45°35' W 083°32'413.0
2018-May-17 11:28N 45°32' W 083°29'  
Track history (hours):
 
Tides and Currents Weather Stations Pressure Air Temp Water Temp Dewpoint Dewpoint Depression Visibility Wind Speed Wind Dir Waves Ship Positions

Tim S. Dool

Last reported at 2018-May-26 11:04 UTC. Time now 2018-May-26 14:09 UTC.
Position N 46°15' W 084°06'.

Length 223 m; draft 8.1 m.

Type: Cargo ship. MMSI: 316001696.

Date/timePositionNaut miles runAvg speedWind from/ knotsBaromVisibWave heightAir tempDewpointWater temp
2018-May-26 11:04N 46°15' W 084°06'4711.2
2018-May-26 06:55N 45°35' W 083°32'613.1
2018-May-26 06:29N 45°30' W 083°27'227 8.6
2018-May-25 04:00N 42°00' W 081°30'38616.8 160 / 101016.0 16.010.0
2018-May-24 05:00N 48°18' W 079°36'30025.0 270 / 51023.010.8 15.010.0
2018-May-23 17:00N 43°18' W 079°48'153 4.1 270 / 7574.810.8 24.017.0
2018-May-22 04:00N 41°54' W 082°42'216 9.7 090 / 101026.0 5.4 15.0 5.0
2018-May-21 05:42N 45°28' W 083°16'312.5
2018-May-21 05:29N 45°31' W 083°19'25610.1
2018-May-20 04:00N 47°30' W 088°48'12412.2 1023.010.8 8.0 4.0
2018-May-19 17:51N 46°51' W 091°41'412.3
2018-May-19 17:30N 46°50' W 091°47'612.1
2018-May-19 17:00N 46°47' W 091°54'611.3
2018-May-19 16:30N 46°43' W 092°00'1 2.0
2018-May-19 16:00N 46°42' W 092°01'0 0.1
2018-May-19 15:30N 46°42' W 092°01'0 0.0
2018-May-19 15:00N 46°42' W 092°01'0 0.0
2018-May-19 14:30N 46°42' W 092°01'0 0.0
2018-May-19 14:00N 46°42' W 092°01'0 0.0
2018-May-19 13:30N 46°42' W 092°01'0 0.0
2018-May-19 13:01N 46°42' W 092°01'0 0.0
2018-May-19 12:31N 46°42' W 092°01'0 0.0
2018-May-19 12:00N 46°42' W 092°01'0 0.0
2018-May-19 11:30N 46°42' W 092°01'0 0.0
2018-May-19 11:00N 46°42' W 092°01'0 0.0
2018-May-19 10:30N 46°42' W 092°01'0 0.0
2018-May-19 10:00N 46°42' W 092°01'0 0.0
2018-May-19 09:30N 46°42' W 092°01'0 0.0
2018-May-19 09:00N 46°42' W 092°01'0 0.0
2018-May-19 08:30N 46°42' W 092°01'0 0.0
2018-May-19 08:00N 46°42' W 092°01'0 0.0
2018-May-19 07:30N 46°42' W 092°01'0 0.0
2018-May-19 07:00N 46°42' W 092°01'0 0.0
2018-May-19 06:30N 46°42' W 092°01'0 0.0
2018-May-19 06:00N 46°42' W 092°01'0 0.0
2018-May-19 05:30N 46°42' W 092°01'0 0.0
2018-May-19 05:00N 46°42' W 092°01'0 0.0
2018-May-19 04:30N 46°42' W 092°01'0 0.0
2018-May-19 04:00N 46°42' W 092°01'0 0.0
2018-May-19 03:31N 46°42' W 092°01'0 0.0
2018-May-19 03:00N 46°42' W 092°01'0 0.0
2018-May-19 02:30N 46°42' W 092°01'0 0.5
2018-May-19 02:01N 46°42' W 092°01'1 1.6
2018-May-19 01:30N 46°43' W 092°00'2 3.6
2018-May-19 01:00N 46°44' W 091°59'1 1.8
2018-May-19 00:30N 46°44' W 091°57'0 0.7
2018-May-19 00:00N 46°44' W 091°57'1 1.1
2018-May-18 23:30N 46°44' W 091°58'0 0.7
2018-May-18 23:00N 46°44' W 091°57'2 3.9
2018-May-18 22:30N 46°45' W 091°55'2 4.0
2018-May-18 22:00N 46°46' W 091°52'2 4.2
2018-May-18 21:30N 46°47' W 091°50'4 7.0
2018-May-18 21:00N 46°48' W 091°45'713.2
2018-May-18 20:30N 46°51' W 091°36'1310.4
2018-May-18 19:16N 46°57' W 091°19'3314.6
2018-May-18 17:00N 47°12' W 090°36'30810.5 090 / 101020.010.8 10.0 5.0
2018-May-17 11:45N 45°35' W 083°32'413.0
2018-May-17 11:28N 45°32' W 083°29'  

Dump ship's entire track history